Test XHTML 1.0 Strict Page for WU-History Testing
Station Historical Data
 
Daily Summary for August 03, 2015 Units:  Both    English   Metric
« Previous Day
Next Day »
Daily Weekly Monthly Yearly Custom
  Current: High: Low: Average:
Temperature: 70.0 °F /  21.1 °C 72.5 °F /  22.5 °C 54.3 °F /  12.4 °C 63.3 °F /  17.4 °C
Dew Point: 56.8 °F /  13.8 °C 61.1 °F /  16.2 °C 50.5 °F /  10.3 °C 55.5 °F /  13.1 °C
Humidity: 63% 91% 62% 76%
Wind Speed: 8.1mph /  13km/h 12.7mph /  20.4km/h - 6.3mph /  10.1km/h
Wind Gust: 8.1mph /  13km/h 12.7mph /  20.4km/h - -
WindWSW - - South
Pressure: 29.81 in /  1009.4 hPa 29.83 in /  1010 hPa 29.74 in /  1007 hPa -
Precipitation: 0.00 in /  0 mm      
Historical Graphs
 
 
Weather-Above Climate History
Untitled
Tabular Data for August 03, 2015
Time Temperature Dew Point Pressure Wind Wind Speed Wind Gust Humidity Rainfall Rate (Hourly)
00:03 62.1 °F /  16.7 °C 52.9 °F /  11.6 °C 29.83in /  1010hPa South 8.6mph /  13.8km/h 8.6mph /  13.8km/h 72% 0.00in /  0cm
00:08 62.4 °F /  16.9 °C 52.9 °F /  11.6 °C 29.83in /  1010hPa SSE 7.0mph /  11.3km/h 7.0mph /  11.3km/h 71% 0.00in /  0cm
00:13 62.6 °F /  17 °C 52.3 °F /  11.3 °C 29.83in /  1010hPa SSE 4.7mph /  7.6km/h 4.7mph /  7.6km/h 69% 0.00in /  0cm
00:18 63.0 °F /  17.2 °C 52.2 °F /  11.2 °C 29.83in /  1010hPa South 12.7mph /  20.4km/h 12.7mph /  20.4km/h 68% 0.00in /  0cm
00:23 63.0 °F /  17.2 °C 52.6 °F /  11.4 °C 29.83in /  1010hPa ESE 4.6mph /  7.4km/h 4.6mph /  7.4km/h 69% 0.00in /  0cm
00:28 63.3 °F /  17.4 °C 52.2 °F /  11.2 °C 29.82in /  1009.7hPa ESE 7.5mph /  12.1km/h 7.5mph /  12.1km/h 67% 0.00in /  0cm
00:33 63.3 °F /  17.4 °C 52.2 °F /  11.2 °C 29.83in /  1010hPa South 6.9mph /  11.1km/h 6.9mph /  11.1km/h 67% 0.00in /  0cm
00:38 63.0 °F /  17.2 °C 52.2 °F /  11.2 °C 29.83in /  1010hPa SSE 6.1mph /  9.8km/h 6.1mph /  9.8km/h 68% 0.00in /  0cm
00:43 62.2 °F /  16.8 °C 52.3 °F /  11.3 °C 29.82in /  1009.7hPa SE 5.4mph /  8.7km/h 5.4mph /  8.7km/h 70% 0.00in /  0cm
00:48 62.6 °F /  17 °C 52.3 °F /  11.3 °C 29.82in /  1009.7hPa SSE 5.0mph /  8km/h 5.0mph /  8km/h 69% 0.00in /  0cm
00:53 62.6 °F /  17 °C 51.9 °F /  11.1 °C 29.81in /  1009.4hPa SSE 5.8mph /  9.3km/h 5.8mph /  9.3km/h 68% 0.00in /  0cm
00:58 62.4 °F /  16.9 °C 52.5 °F /  11.4 °C 29.81in /  1009.4hPa South 5.8mph /  9.3km/h 5.8mph /  9.3km/h 70% 0.00in /  0cm
01:03 62.4 °F /  16.9 °C 52.1 °F /  11.2 °C 29.81in /  1009.4hPa SSE 5.8mph /  9.3km/h 5.8mph /  9.3km/h 69% 0.00in /  0cm
01:08 62.4 °F /  16.9 °C 51.7 °F /  10.9 °C 29.81in /  1009.4hPa ESE 9.4mph /  15.1km/h 9.4mph /  15.1km/h 68% 0.00in /  0cm
01:13 63.0 °F /  17.2 °C 52.2 °F /  11.2 °C 29.81in /  1009.4hPa ESE 5.8mph /  9.3km/h 5.8mph /  9.3km/h 68% 0.00in /  0cm
01:18 63.0 °F /  17.2 °C 51.8 °F /  11 °C 29.80in /  1009hPa South 8.1mph /  13km/h 8.1mph /  13km/h 67% 0.00in /  0cm
01:23 62.6 °F /  17 °C 51.9 °F /  11.1 °C 29.80in /  1009hPa ESE 5.8mph /  9.3km/h 5.8mph /  9.3km/h 68% 0.00in /  0cm
01:28 62.2 °F /  16.8 °C 52.3 °F /  11.3 °C 29.80in /  1009hPa SSE 8.1mph /  13km/h 8.1mph /  13km/h 70% 0.00in /  0cm
01:33 62.1 °F /  16.7 °C 52.2 °F /  11.2 °C 29.80in /  1009hPa SSE 7.5mph /  12.1km/h 7.5mph /  12.1km/h 70% 0.00in /  0cm
01:38 62.2 °F /  16.8 °C 51.9 °F /  11.1 °C 29.80in /  1009hPa SW 4.8mph /  7.7km/h 4.8mph /  7.7km/h 69% 0.00in /  0cm
01:43 62.2 °F /  16.8 °C 52.3 °F /  11.3 °C 29.81in /  1009.4hPa SE 4.6mph /  7.4km/h 4.6mph /  7.4km/h 70% 0.00in /  0cm
01:48 62.4 °F /  16.9 °C 51.7 °F /  10.9 °C 29.81in /  1009.4hPa ESE 10.4mph /  16.7km/h 10.4mph /  16.7km/h 68% 0.00in /  0cm
01:53 62.6 °F /  17 °C 51.9 °F /  11.1 °C 29.80in /  1009hPa SSE 8.3mph /  13.4km/h 8.3mph /  13.4km/h 68% 0.00in /  0cm
01:58 62.4 °F /  16.9 °C 52.1 °F /  11.2 °C 29.80in /  1009hPa SSE 7.5mph /  12.1km/h 7.5mph /  12.1km/h 69% 0.00in /  0cm
02:03 62.1 °F /  16.7 °C 52.5 °F /  11.4 °C 29.80in /  1009hPa ESE 8.1mph /  13km/h 8.1mph /  13km/h 71% 0.00in /  0cm
02:08 62.1 °F /  16.7 °C 52.5 °F /  11.4 °C 29.78in /  1008.4hPa SSE 12.1mph /  19.5km/h 12.1mph /  19.5km/h 71% 0.00in /  0cm
02:13 62.1 °F /  16.7 °C 52.5 °F /  11.4 °C 29.79in /  1008.7hPa SE 8.6mph /  13.8km/h 8.6mph /  13.8km/h 71% 0.00in /  0cm
02:18 61.7 °F /  16.5 °C 52.2 °F /  11.2 °C 29.78in /  1008.4hPa ESE 6.9mph /  11.1km/h 6.9mph /  11.1km/h 71% 0.00in /  0cm
02:23 61.5 °F /  16.4 °C 52.4 °F /  11.3 °C 29.78in /  1008.4hPa SSW 8.3mph /  13.4km/h 8.3mph /  13.4km/h 72% 0.00in /  0cm
02:28 61.5 °F /  16.4 °C 52.4 °F /  11.3 °C 29.78in /  1008.4hPa SE 5.8mph /  9.3km/h 5.8mph /  9.3km/h 72% 0.00in /  0cm
02:33 62.1 °F /  16.7 °C 52.2 °F /  11.2 °C 29.78in /  1008.4hPa ESE 9.4mph /  15.1km/h 9.4mph /  15.1km/h 70% 0.00in /  0cm
02:38 62.2 °F /  16.8 °C 52.3 °F /  11.3 °C 29.78in /  1008.4hPa SSE 8.1mph /  13km/h 8.1mph /  13km/h 70% 0.00in /  0cm
02:43 62.1 °F /  16.7 °C 52.5 °F /  11.4 °C 29.78in /  1008.4hPa SSE 7.0mph /  11.3km/h 7.0mph /  11.3km/h 71% 0.00in /  0cm
02:48 62.1 °F /  16.7 °C 51.8 °F /  11 °C 29.77in /  1008hPa ESE 8.1mph /  13km/h 8.1mph /  13km/h 69% 0.00in /  0cm
02:53 61.2 °F /  16.2 °C 52.1 °F /  11.2 °C 29.77in /  1008hPa SSE 8.0mph /  12.9km/h 8.0mph /  12.9km/h 72% 0.00in /  0cm
02:58 60.6 °F /  15.9 °C 51.5 °F /  10.8 °C 29.76in /  1007.7hPa ESE 10.4mph /  16.7km/h 10.4mph /  16.7km/h 72% 0.00in /  0cm
03:08 60.8 °F /  16 °C 51.7 °F /  10.9 °C 29.76in /  1007.7hPa SSE 6.9mph /  11.1km/h 6.9mph /  11.1km/h 72% 0.00in /  0cm
03:13 60.8 °F /  16 °C 52.1 °F /  11.2 °C 29.77in /  1008hPa South 5.4mph /  8.7km/h 5.4mph /  8.7km/h 73% 0.00in /  0cm
03:18 60.4 °F /  15.8 °C 51.7 °F /  10.9 °C 29.77in /  1008hPa South 3.5mph /  5.6km/h 3.5mph /  5.6km/h 73% 0.00in /  0cm
03:23 60.3 °F /  15.7 °C 51.9 °F /  11.1 °C 29.76in /  1007.7hPa SSE 5.8mph /  9.3km/h 5.8mph /  9.3km/h 74% 0.00in /  0cm
03:28 59.9 °F /  15.5 °C 51.6 °F /  10.9 °C 29.76in /  1007.7hPa SSE 5.5mph /  8.9km/h 5.5mph /  8.9km/h 74% 0.00in /  0cm
03:33 59.2 °F /  15.1 °C 51.6 °F /  10.9 °C 29.76in /  1007.7hPa SSE 6.5mph /  10.5km/h 6.5mph /  10.5km/h 76% 0.00in /  0cm
03:38 58.5 °F /  14.7 °C 51.3 °F /  10.7 °C 29.76in /  1007.7hPa SSE 5.7mph /  9.2km/h 5.7mph /  9.2km/h 77% 0.00in /  0cm
03:43 58.1 °F /  14.5 °C 51.3 °F /  10.7 °C 29.76in /  1007.7hPa South 3.5mph /  5.6km/h 3.5mph /  5.6km/h 78% 0.00in /  0cm
03:48 57.9 °F /  14.4 °C 51.1 °F /  10.6 °C 29.76in /  1007.7hPa SSE 4.7mph /  7.6km/h 4.7mph /  7.6km/h 78% 0.00in /  0cm
03:53 57.9 °F /  14.4 °C 51.4 °F /  10.8 °C 29.76in /  1007.7hPa South 8.1mph /  13km/h 8.1mph /  13km/h 79% 0.00in /  0cm
03:58 57.6 °F /  14.2 °C 51.1 °F /  10.6 °C 29.76in /  1007.7hPa SSE 4.6mph /  7.4km/h 4.6mph /  7.4km/h 79% 0.00in /  0cm
04:03 57.0 °F /  13.9 °C 51.2 °F /  10.7 °C 29.76in /  1007.7hPa ESE 4.7mph /  7.6km/h 4.7mph /  7.6km/h 81% 0.00in /  0cm
04:08 56.5 °F /  13.6 °C 51.1 °F /  10.6 °C 29.76in /  1007.7hPa SSE 5.8mph /  9.3km/h 5.8mph /  9.3km/h 82% 0.00in /  0cm
04:13 56.3 °F /  13.5 °C 50.9 °F /  10.5 °C 29.76in /  1007.7hPa ESE 4.7mph /  7.6km/h 4.7mph /  7.6km/h 82% 0.00in /  0cm
04:18 56.1 °F /  13.4 °C 51.0 °F /  10.6 °C 29.75in /  1007.3hPa SSE 6.1mph /  9.8km/h 6.1mph /  9.8km/h 83% 0.00in /  0cm
04:23 56.3 °F /  13.5 °C 51.2 °F /  10.7 °C 29.76in /  1007.7hPa ESE 4.6mph /  7.4km/h 4.6mph /  7.4km/h 83% 0.00in /  0cm
04:28 56.8 °F /  13.8 °C 51.4 °F /  10.8 °C 29.76in /  1007.7hPa SSE 7.6mph /  12.2km/h 7.6mph /  12.2km/h 82% 0.00in /  0cm
04:33 57.2 °F /  14 °C 51.8 °F /  11 °C 29.76in /  1007.7hPa SE 5.8mph /  9.3km/h 5.8mph /  9.3km/h 82% 0.00in /  0cm
04:38 57.2 °F /  14 °C 51.4 °F /  10.8 °C 29.76in /  1007.7hPa SE 12.7mph /  20.4km/h 12.7mph /  20.4km/h 81% 0.00in /  0cm
04:43 57.4 °F /  14.1 °C 51.3 °F /  10.7 °C 29.75in /  1007.3hPa East 6.9mph /  11.1km/h 6.9mph /  11.1km/h 80% 0.00in /  0cm
04:48 57.2 °F /  14 °C 51.1 °F /  10.6 °C 29.75in /  1007.3hPa SSW 6.9mph /  11.1km/h 6.9mph /  11.1km/h 80% 0.00in /  0cm
04:53 57.2 °F /  14 °C 51.1 °F /  10.6 °C 29.75in /  1007.3hPa SSE 3.3mph /  5.3km/h 3.3mph /  5.3km/h 80% 0.00in /  0cm
04:58 56.7 °F /  13.7 °C 50.6 °F /  10.3 °C 29.75in /  1007.3hPa NE 3.2mph /  5.1km/h 3.2mph /  5.1km/h 80% 0.00in /  0cm
05:03 56.3 °F /  13.5 °C 50.9 °F /  10.5 °C 29.75in /  1007.3hPa SSE 7.5mph /  12.1km/h 7.5mph /  12.1km/h 82% 0.00in /  0cm
05:08 55.6 °F /  13.1 °C 50.8 °F /  10.4 °C 29.74in /  1007hPa SE 2.3mph /  3.7km/h 2.3mph /  3.7km/h 84% 0.00in /  0cm
05:13 55.2 °F /  12.9 °C 50.5 °F /  10.3 °C 29.75in /  1007.3hPa SE 4.6mph /  7.4km/h 4.6mph /  7.4km/h 84% 0.00in /  0cm
05:18 55.4 °F /  13 °C 50.6 °F /  10.3 °C 29.75in /  1007.3hPa SSE 1.4mph /  2.3km/h 1.4mph /  2.3km/h 84% 0.00in /  0cm
05:23 55.2 °F /  12.9 °C 50.8 °F /  10.4 °C 29.75in /  1007.3hPa South 2.6mph /  4.2km/h 2.6mph /  4.2km/h 85% 0.00in /  0cm
05:28 55.2 °F /  12.9 °C 51.1 °F /  10.6 °C 29.75in /  1007.3hPa SSE 8.1mph /  13km/h 8.1mph /  13km/h 86% 0.00in /  0cm
05:33 55.2 °F /  12.9 °C 51.1 °F /  10.6 °C 29.75in /  1007.3hPa SE 5.8mph /  9.3km/h 5.8mph /  9.3km/h 86% 0.00in /  0cm
05:38 55.0 °F /  12.8 °C 50.9 °F /  10.5 °C 29.75in /  1007.3hPa SE 4.0mph /  6.4km/h 4.0mph /  6.4km/h 86% 0.00in /  0cm
05:43 54.9 °F /  12.7 °C 51.1 °F /  10.6 °C 29.75in /  1007.3hPa SE 4.0mph /  6.4km/h 4.0mph /  6.4km/h 87% 0.00in /  0cm
05:48 54.9 °F /  12.7 °C 51.4 °F /  10.8 °C 29.75in /  1007.3hPa SSE 4.7mph /  7.6km/h 4.7mph /  7.6km/h 88% 0.00in /  0cm
05:53 54.5 °F /  12.5 °C 51.0 °F /  10.6 °C 29.75in /  1007.3hPa SE 4.6mph /  7.4km/h 4.6mph /  7.4km/h 88% 0.00in /  0cm
05:58 54.3 °F /  12.4 °C 51.1 °F /  10.6 °C 29.75in /  1007.3hPa ESE 5.8mph /  9.3km/h 5.8mph /  9.3km/h 89% 0.00in /  0cm
06:03 54.3 °F /  12.4 °C 51.1 °F /  10.6 °C 29.75in /  1007.3hPa SE 4.6mph /  7.4km/h 4.6mph /  7.4km/h 89% 0.00in /  0cm
06:08 54.3 °F /  12.4 °C 51.1 °F /  10.6 °C 29.76in /  1007.7hPa SSE 4.0mph /  6.4km/h 4.0mph /  6.4km/h 89% 0.00in /  0cm
06:13 54.7 °F /  12.6 °C 51.8 °F /  11 °C 29.76in /  1007.7hPa SE 3.6mph /  5.8km/h 3.6mph /  5.8km/h 90% 0.00in /  0cm
06:18 55.0 °F /  12.8 °C 52.5 °F /  11.4 °C 29.75in /  1007.3hPa South 3.9mph /  6.3km/h 3.9mph /  6.3km/h 91% 0.00in /  0cm
06:23 55.4 °F /  13 °C 52.5 °F /  11.4 °C 29.75in /  1007.3hPa SSE 4.6mph /  7.4km/h 4.6mph /  7.4km/h 90% 0.00in /  0cm
06:28 55.9 °F /  13.3 °C 52.7 °F /  11.5 °C 29.75in /  1007.3hPa SSE 5.8mph /  9.3km/h 5.8mph /  9.3km/h 89% 0.00in /  0cm
06:33 56.5 °F /  13.6 °C 52.7 °F /  11.5 °C 29.75in /  1007.3hPa SE 4.0mph /  6.4km/h 4.0mph /  6.4km/h 87% 0.00in /  0cm
06:38 56.5 °F /  13.6 °C 52.7 °F /  11.5 °C 29.75in /  1007.3hPa SSE 3.7mph /  6km/h 3.7mph /  6km/h 87% 0.00in /  0cm
06:43 56.3 °F /  13.5 °C 52.5 °F /  11.4 °C 29.75in /  1007.3hPa SE 3.9mph /  6.3km/h 3.9mph /  6.3km/h 87% 0.00in /  0cm
06:48 56.3 °F /  13.5 °C 53.1 °F /  11.7 °C 29.75in /  1007.3hPa SSE 4.3mph /  6.9km/h 4.3mph /  6.9km/h 89% 0.00in /  0cm
06:53 56.1 °F /  13.4 °C 53.2 °F /  11.8 °C 29.76in /  1007.7hPa SE 4.6mph /  7.4km/h 4.6mph /  7.4km/h 90% 0.00in /  0cm
06:58 56.3 °F /  13.5 °C 53.4 °F /  11.9 °C 29.76in /  1007.7hPa South 5.8mph /  9.3km/h 5.8mph /  9.3km/h 90% 0.00in /  0cm
07:03 57.0 °F /  13.9 °C 54.1 °F /  12.3 °C 29.76in /  1007.7hPa SE 5.4mph /  8.7km/h 5.4mph /  8.7km/h 90% 0.00in /  0cm
07:08 57.9 °F /  14.4 °C 54.7 °F /  12.6 °C 29.76in /  1007.7hPa SSE 3.7mph /  6km/h 3.7mph /  6km/h 89% 0.00in /  0cm
07:13 58.3 °F /  14.6 °C 55.1 °F /  12.8 °C 29.76in /  1007.7hPa South 3.6mph /  5.8km/h 3.6mph /  5.8km/h 89% 0.00in /  0cm
07:18 58.5 °F /  14.7 °C 55.5 °F /  13.1 °C 29.76in /  1007.7hPa SSE 3.5mph /  5.6km/h 3.5mph /  5.6km/h 90% 0.00in /  0cm
07:23 59.0 °F /  15 °C 55.8 °F /  13.2 °C 29.75in /  1007.3hPa SSW 3.3mph /  5.3km/h 3.3mph /  5.3km/h 89% 0.00in /  0cm
07:28 59.2 °F /  15.1 °C 56.2 °F /  13.4 °C 29.76in /  1007.7hPa East 4.6mph /  7.4km/h 4.6mph /  7.4km/h 90% 0.00in /  0cm
07:33 59.5 °F /  15.3 °C 56.0 °F /  13.3 °C 29.76in /  1007.7hPa South 1.4mph /  2.3km/h 1.4mph /  2.3km/h 88% 0.00in /  0cm
07:38 59.9 °F /  15.5 °C 56.6 °F /  13.7 °C 29.76in /  1007.7hPa SE 4.3mph /  6.9km/h 4.3mph /  6.9km/h 89% 0.00in /  0cm
07:43 60.3 °F /  15.7 °C 57.0 °F /  13.9 °C 29.76in /  1007.7hPa SE 2.3mph /  3.7km/h 2.3mph /  3.7km/h 89% 0.00in /  0cm
07:48 60.8 °F /  16 °C 57.5 °F /  14.2 °C 29.76in /  1007.7hPa ESE 4.1mph /  6.6km/h 4.1mph /  6.6km/h 89% 0.00in /  0cm
07:53 61.7 °F /  16.5 °C 58.4 °F /  14.7 °C 29.76in /  1007.7hPa SE 9.2mph /  14.8km/h 9.2mph /  14.8km/h 89% 0.00in /  0cm
07:58 62.6 °F /  17 °C 59.0 °F /  15 °C 29.76in /  1007.7hPa SSE 6.1mph /  9.8km/h 6.1mph /  9.8km/h 88% 0.00in /  0cm
08:03 63.5 °F /  17.5 °C 59.9 °F /  15.5 °C 29.76in /  1007.7hPa NNE 3.3mph /  5.3km/h 3.3mph /  5.3km/h 88% 0.00in /  0cm
08:08 63.9 °F /  17.7 °C 59.6 °F /  15.3 °C 29.77in /  1008hPa NW 5.8mph /  9.3km/h 5.8mph /  9.3km/h 86% 0.00in /  0cm
08:13 64.2 °F /  17.9 °C 59.9 °F /  15.5 °C 29.77in /  1008hPa SSW 6.9mph /  11.1km/h 6.9mph /  11.1km/h 86% 0.00in /  0cm
08:18 64.2 °F /  17.9 °C 59.9 °F /  15.5 °C 29.77in /  1008hPa South 6.1mph /  9.8km/h 6.1mph /  9.8km/h 86% 0.00in /  0cm
08:23 64.6 °F /  18.1 °C 60.0 °F /  15.6 °C 29.77in /  1008hPa SSW 9.2mph /  14.8km/h 9.2mph /  14.8km/h 85% 0.00in /  0cm
08:28 64.8 °F /  18.2 °C 59.8 °F /  15.4 °C 29.77in /  1008hPa WNW 7.3mph /  11.7km/h 7.3mph /  11.7km/h 84% 0.00in /  0cm
08:33 65.3 °F /  18.5 °C 60.3 °F /  15.7 °C 29.77in /  1008hPa ENE 3.7mph /  6km/h 3.7mph /  6km/h 84% 0.00in /  0cm
08:38 65.8 °F /  18.8 °C 60.9 °F /  16.1 °C 29.77in /  1008hPa South 10.9mph /  17.5km/h 10.9mph /  17.5km/h 84% 0.00in /  0cm
08:43 66.0 °F /  18.9 °C 60.7 °F /  15.9 °C 29.77in /  1008hPa ENE 4.6mph /  7.4km/h 4.6mph /  7.4km/h 83% 0.00in /  0cm
08:48 66.2 °F /  19 °C 60.5 °F /  15.8 °C 29.77in /  1008hPa SSE 9.2mph /  14.8km/h 9.2mph /  14.8km/h 82% 0.00in /  0cm
08:53 66.0 °F /  18.9 °C 60.4 °F /  15.8 °C 29.77in /  1008hPa SE 5.8mph /  9.3km/h 5.8mph /  9.3km/h 82% 0.00in /  0cm
08:58 65.7 °F /  18.7 °C 60.4 °F /  15.8 °C 29.77in /  1008hPa East 9.2mph /  14.8km/h 9.2mph /  14.8km/h 83% 0.00in /  0cm
09:03 65.7 °F /  18.7 °C 60.7 °F /  15.9 °C 29.77in /  1008hPa SE 4.6mph /  7.4km/h 4.6mph /  7.4km/h 84% 0.00in /  0cm
09:08 66.0 °F /  18.9 °C 61.0 °F /  16.1 °C 29.77in /  1008hPa WSW 8.1mph /  13km/h 8.1mph /  13km/h 84% 0.00in /  0cm
09:13 66.0 °F /  18.9 °C 61.0 °F /  16.1 °C 29.77in /  1008hPa SSE 7.5mph /  12.1km/h 7.5mph /  12.1km/h 84% 0.00in /  0cm
09:18 66.2 °F /  19 °C 60.9 °F /  16.1 °C 29.78in /  1008.4hPa ENE 3.7mph /  6km/h 3.7mph /  6km/h 83% 0.00in /  0cm
09:23 66.2 °F /  19 °C 60.5 °F /  15.8 °C 29.78in /  1008.4hPa SSE 5.8mph /  9.3km/h 5.8mph /  9.3km/h 82% 0.00in /  0cm
09:28 66.2 °F /  19 °C 60.5 °F /  15.8 °C 29.78in /  1008.4hPa SE 3.5mph /  5.6km/h 3.5mph /  5.6km/h 82% 0.00in /  0cm
09:33 66.2 °F /  19 °C 60.5 °F /  15.8 °C 29.78in /  1008.4hPa SW 3.5mph /  5.6km/h 3.5mph /  5.6km/h 82% 0.00in /  0cm
09:38 66.2 °F /  19 °C 60.2 °F /  15.7 °C 29.78in /  1008.4hPa SE 4.7mph /  7.6km/h 4.7mph /  7.6km/h 81% 0.00in /  0cm
09:43 66.9 °F /  19.4 °C 60.5 °F /  15.8 °C 29.78in /  1008.4hPa South 3.6mph /  5.8km/h 3.6mph /  5.8km/h 80% 0.00in /  0cm
09:48 68.0 °F /  20 °C 60.9 °F /  16.1 °C 29.78in /  1008.4hPa East 9.2mph /  14.8km/h 9.2mph /  14.8km/h 78% 0.00in /  0cm
09:53 68.0 °F /  20 °C 60.9 °F /  16.1 °C 29.78in /  1008.4hPa WSW 12.7mph /  20.4km/h 12.7mph /  20.4km/h 78% 0.00in /  0cm
09:58 68.0 °F /  20 °C 60.2 °F /  15.7 °C 29.78in /  1008.4hPa SSW 8.1mph /  13km/h 8.1mph /  13km/h 76% 0.00in /  0cm
10:03 68.2 °F /  20.1 °C 60.0 °F /  15.6 °C 29.78in /  1008.4hPa SSE 12.7mph /  20.4km/h 12.7mph /  20.4km/h 75% 0.00in /  0cm
10:08 68.5 °F /  20.3 °C 59.9 °F /  15.5 °C 29.78in /  1008.4hPa SSE 6.9mph /  11.1km/h 6.9mph /  11.1km/h 74% 0.00in /  0cm
10:13 68.9 °F /  20.5 °C 60.3 °F /  15.7 °C 29.78in /  1008.4hPa West 4.6mph /  7.4km/h 4.6mph /  7.4km/h 74% 0.00in /  0cm
10:18 69.6 °F /  20.9 °C 61.0 °F /  16.1 °C 29.78in /  1008.4hPa NE 4.6mph /  7.4km/h 4.6mph /  7.4km/h 74% 0.00in /  0cm
10:23 70.5 °F /  21.4 °C 61.1 °F /  16.2 °C 29.79in /  1008.7hPa SSE 8.1mph /  13km/h 8.1mph /  13km/h 72% 0.00in /  0cm
10:28 70.5 °F /  21.4 °C 60.7 °F /  15.9 °C 29.79in /  1008.7hPa East 12.7mph /  20.4km/h 12.7mph /  20.4km/h 71% 0.00in /  0cm
10:33 70.5 °F /  21.4 °C 60.3 °F /  15.7 °C 29.78in /  1008.4hPa NNW 6.9mph /  11.1km/h 6.9mph /  11.1km/h 70% 0.00in /  0cm
10:38 70.3 °F /  21.3 °C 60.1 °F /  15.6 °C 29.79in /  1008.7hPa WSW 8.6mph /  13.8km/h 8.6mph /  13.8km/h 70% 0.00in /  0cm
10:43 70.5 °F /  21.4 °C 59.9 °F /  15.5 °C 29.79in /  1008.7hPa South 6.8mph /  10.9km/h 6.8mph /  10.9km/h 69% 0.00in /  0cm
10:48 70.5 °F /  21.4 °C 59.9 °F /  15.5 °C 29.79in /  1008.7hPa ESE 6.9mph /  11.1km/h 6.9mph /  11.1km/h 69% 0.00in /  0cm
10:53 70.7 °F /  21.5 °C 59.6 °F /  15.3 °C 29.79in /  1008.7hPa WSW 10.6mph /  17.1km/h 10.6mph /  17.1km/h 68% 0.00in /  0cm
10:58 71.4 °F /  21.9 °C 60.7 °F /  15.9 °C 29.79in /  1008.7hPa SSW 5.8mph /  9.3km/h 5.8mph /  9.3km/h 69% 0.00in /  0cm
11:03 72.1 °F /  22.3 °C 60.6 °F /  15.9 °C 29.79in /  1008.7hPa ENE 5.8mph /  9.3km/h 5.8mph /  9.3km/h 67% 0.00in /  0cm
11:08 72.5 °F /  22.5 °C 60.5 °F /  15.8 °C 29.78in /  1008.4hPa NNE 10.4mph /  16.7km/h 10.4mph /  16.7km/h 66% 0.00in /  0cm
11:13 72.0 °F /  22.2 °C 60.0 °F /  15.6 °C 29.79in /  1008.7hPa North 3.5mph /  5.6km/h 3.5mph /  5.6km/h 66% 0.00in /  0cm
11:18 71.6 °F /  22 °C 59.6 °F /  15.3 °C 29.80in /  1009hPa West 6.5mph /  10.5km/h 6.5mph /  10.5km/h 66% 0.00in /  0cm
11:23 70.2 °F /  21.2 °C 59.1 °F /  15.1 °C 29.80in /  1009hPa South 5.8mph /  9.3km/h 5.8mph /  9.3km/h 68% 0.00in /  0cm
11:28 69.3 °F /  20.7 °C 59.1 °F /  15.1 °C 29.80in /  1009hPa SSE 3.5mph /  5.6km/h 3.5mph /  5.6km/h 70% 0.00in /  0cm
11:33 68.7 °F /  20.4 °C 58.5 °F /  14.7 °C 29.80in /  1009hPa WSW 10.4mph /  16.7km/h 10.4mph /  16.7km/h 70% 0.00in /  0cm
11:38 69.3 °F /  20.7 °C 59.1 °F /  15.1 °C 29.80in /  1009hPa WSW 5.9mph /  9.5km/h 5.9mph /  9.5km/h 70% 0.00in /  0cm
11:43 70.5 °F /  21.4 °C 59.0 °F /  15 °C 29.80in /  1009hPa West 8.3mph /  13.4km/h 8.3mph /  13.4km/h 67% 0.00in /  0cm
11:48 69.8 °F /  21 °C 59.6 °F /  15.3 °C 29.80in /  1009hPa NW 8.1mph /  13km/h 8.1mph /  13km/h 70% 0.00in /  0cm
11:53 68.7 °F /  20.4 °C 58.9 °F /  14.9 °C 29.80in /  1009hPa ESE 7.5mph /  12.1km/h 7.5mph /  12.1km/h 71% 0.00in /  0cm
11:58 68.7 °F /  20.4 °C 59.7 °F /  15.4 °C 29.80in /  1009hPa WNW 8.1mph /  13km/h 8.1mph /  13km/h 73% 0.00in /  0cm
12:03 68.7 °F /  20.4 °C 58.9 °F /  14.9 °C 29.81in /  1009.4hPa WNW 5.1mph /  8.2km/h 5.1mph /  8.2km/h 71% 0.00in /  0cm
12:08 68.4 °F /  20.2 °C 59.4 °F /  15.2 °C 29.80in /  1009hPa SE 6.9mph /  11.1km/h 6.9mph /  11.1km/h 73% 0.00in /  0cm
12:13 68.0 °F /  20 °C 58.2 °F /  14.6 °C 29.80in /  1009hPa NW 6.9mph /  11.1km/h 6.9mph /  11.1km/h 71% 0.00in /  0cm
12:18 68.4 °F /  20.2 °C 59.0 °F /  15 °C 29.80in /  1009hPa WNW 8.3mph /  13.4km/h 8.3mph /  13.4km/h 72% 0.00in /  0cm
12:23 69.6 °F /  20.9 °C 59.4 °F /  15.2 °C 29.80in /  1009hPa West 6.1mph /  9.8km/h 6.1mph /  9.8km/h 70% 0.00in /  0cm
12:28 69.8 °F /  21 °C 59.2 °F /  15.1 °C 29.81in /  1009.4hPa West 6.1mph /  9.8km/h 6.1mph /  9.8km/h 69% 0.00in /  0cm
12:33 70.5 °F /  21.4 °C 59.9 °F /  15.5 °C 29.80in /  1009hPa SSW 10.8mph /  17.4km/h 10.8mph /  17.4km/h 69% 0.00in /  0cm
12:38 70.3 °F /  21.3 °C 58.9 °F /  14.9 °C 29.80in /  1009hPa WSW 8.1mph /  13km/h 8.1mph /  13km/h 67% 0.00in /  0cm
12:43 69.3 °F /  20.7 °C 58.2 °F /  14.6 °C 29.81in /  1009.4hPa East 4.6mph /  7.4km/h 4.6mph /  7.4km/h 68% 0.00in /  0cm
12:48 70.3 °F /  21.3 °C 58.9 °F /  14.9 °C 29.81in /  1009.4hPa South 8.1mph /  13km/h 8.1mph /  13km/h 67% 0.00in /  0cm
12:53 71.1 °F /  21.7 °C 58.7 °F /  14.8 °C 29.81in /  1009.4hPa NW 5.4mph /  8.7km/h 5.4mph /  8.7km/h 65% 0.00in /  0cm
12:58 71.1 °F /  21.7 °C 58.3 °F /  14.6 °C 29.81in /  1009.4hPa SE 7.0mph /  11.3km/h 7.0mph /  11.3km/h 64% 0.00in /  0cm
13:03 71.4 °F /  21.9 °C 59.0 °F /  15 °C 29.80in /  1009hPa WSW 4.3mph /  6.9km/h 4.3mph /  6.9km/h 65% 0.00in /  0cm
13:08 71.6 °F /  22 °C 58.3 °F /  14.6 °C 29.80in /  1009hPa NNW 9.2mph /  14.8km/h 9.2mph /  14.8km/h 63% 0.00in /  0cm
13:13 71.4 °F /  21.9 °C 58.6 °F /  14.8 °C 29.80in /  1009hPa ESE 9.2mph /  14.8km/h 9.2mph /  14.8km/h 64% 0.00in /  0cm
13:18 70.5 °F /  21.4 °C 56.9 °F /  13.8 °C 29.81in /  1009.4hPa SSW 4.0mph /  6.4km/h 4.0mph /  6.4km/h 62% 0.00in /  0cm
13:23 70.5 °F /  21.4 °C 57.8 °F /  14.3 °C 29.80in /  1009hPa WSW 6.3mph /  10.1km/h 6.3mph /  10.1km/h 64% 0.00in /  0cm
13:28 70.7 °F /  21.5 °C 57.9 °F /  14.4 °C 29.80in /  1009hPa NW 6.1mph /  9.8km/h 6.1mph /  9.8km/h 64% 0.00in /  0cm
13:33 71.1 °F /  21.7 °C 57.8 °F /  14.3 °C 29.80in /  1009hPa WNW 6.9mph /  11.1km/h 6.9mph /  11.1km/h 63% 0.00in /  0cm
13:38 70.7 °F /  21.5 °C 59.2 °F /  15.1 °C 29.80in /  1009hPa NNW 2.3mph /  3.7km/h 2.3mph /  3.7km/h 67% 0.00in /  0cm
13:43 69.6 °F /  20.9 °C 57.3 °F /  14.1 °C 29.81in /  1009.4hPa SSW 5.8mph /  9.3km/h 5.8mph /  9.3km/h 65% 0.00in /  0cm
13:48 69.3 °F /  20.7 °C 57.4 °F /  14.1 °C 29.81in /  1009.4hPa NW 8.1mph /  13km/h 8.1mph /  13km/h 66% 0.00in /  0cm
13:53 69.8 °F /  21 °C 57.9 °F /  14.4 °C 29.80in /  1009hPa WNW 10.4mph /  16.7km/h 10.4mph /  16.7km/h 66% 0.00in /  0cm
13:58 70.2 °F /  21.2 °C 58.3 °F /  14.6 °C 29.81in /  1009.4hPa NNW 6.9mph /  11.1km/h 6.9mph /  11.1km/h 66% 0.00in /  0cm
14:03 70.0 °F /  21.1 °C 56.8 °F /  13.8 °C 29.81in /  1009.4hPa WSW 8.1mph /  13km/h 8.1mph /  13km/h 63% 0.00in /  0cm
Wether-Above
Compliments of Weather Underground
Welcome to Weather-Above
Cheddleton weather station supplies various organisations with data from our weather station one of them is the weather Underground this information displayed here is coming from the weather Underground server 

If any information is used please acknowledge the source to www weather-above.com or weather Underground